Time;durP1;ratioP1;P1;durP2;ratioP2;P2;SDS_P1;SDS_P2;PMS_P1;PMS_P2;Temp;Humidity;BMP_temperature;BMP_pressure;BME280_temperature;BME280_humidity;BME280_pressure;Samples;Min_cycle;Max_cycle;Signal;HPM_P1;HPM_P2
2022/04/28 00:00:51;;;;;;;1273.60;999.90;;;7.30;1.00;;;;;;4973136;28;20050;-78
2022/04/28 00:03:17;;;;;;;1410.20;999.90;;;7.40;1.00;;;;;;4972857;28;20122;-78
2022/04/28 00:05:43;;;;;;;1265.20;999.90;;;8.90;1.00;;;;;;4955975;28;20078;-77
2022/04/28 00:08:09;;;;;;;1235.43;997.80;;;7.50;1.00;;;;;;4972843;28;20051;-78
2022/04/28 00:10:36;;;;;;;1261.15;999.90;;;9.20;1.00;;;;;;4973441;28;20061;-77
2022/04/28 00:13:03;;;;;;;1804.50;999.90;;;7.50;1.00;;;;;;4972729;28;20483;-77
2022/04/28 00:15:29;;;;;;;1365.90;999.90;;;7.50;1.00;;;;;;4973011;28;20463;-76
2022/04/28 00:17:56;;;;;;;1440.05;999.90;;;7.50;1.00;;;;;;4972995;28;20089;-77
2022/04/28 00:20:21;;;;;;;1097.30;954.83;;;7.70;1.00;;;;;;4972245;28;20120;-77
2022/04/28 00:22:47;;;;;;;1526.03;999.90;;;7.50;1.00;;;;;;4955520;28;20149;-77
2022/04/28 00:25:13;;;;;;;1063.07;943.22;;;9.00;1.00;;;;;;4972284;28;20090;-77
2022/04/28 00:27:39;;;;;;;1114.85;943.63;;;7.60;1.00;;;;;;4972933;28;20058;-77
2022/04/28 00:30:07;;;;;;;1425.35;999.90;;;7.30;1.00;;;;;;4972591;28;20476;-76
2022/04/28 00:32:32;;;;;;;1286.57;999.90;;;7.60;1.00;;;;;;4972767;28;20058;-76
2022/04/28 00:34:58;;;;;;;1284.72;999.90;;;7.60;1.00;;;;;;4972640;28;20047;-76
2022/04/28 00:37:24;;;;;;;1135.55;967.38;;;7.60;1.00;;;;;;4972170;28;20057;-76
2022/04/28 00:39:50;;;;;;;1381.47;999.90;;;7.70;1.00;;;;;;4955323;28;20061;-77
2022/04/28 00:42:17;;;;;;;1226.55;995.85;;;7.70;1.00;;;;;;4972844;28;20090;-76
2022/04/28 00:44:43;;;;;;;899.22;820.10;;;7.70;1.00;;;;;;4972614;28;20129;-77
2022/04/28 00:47:10;;;;;;;1237.15;998.92;;;7.70;1.00;;;;;;4972468;28;20042;-77
2022/04/28 00:52:21;;;;;;;1170.65;967.08;;;7.70;1.00;;;;;;4972707;28;20050;-78
2022/04/28 00:54:49;;;;;;;1679.80;999.90;;;7.70;1.00;;;;;;4972363;28;20451;-79
2022/04/28 00:57:15;;;;;;;1150.53;961.90;;;7.70;1.00;;;;;;4974182;28;20086;-78
2022/04/28 00:59:41;;;;;;;1077.15;952.55;;;7.80;1.00;;;;;;4959130;28;20047;-77
2022/04/28 01:02:10;;;;;;;1256.95;999.90;;;7.80;1.00;;;;;;4976097;28;20403;-77
2022/04/28 01:04:37;;;;;;;1125.03;998.20;;;9.10;1.00;;;;;;4976392;28;20086;-77
2022/04/28 01:07:03;;;;;;;1369.72;999.90;;;;;;;;;;4976080;28;20105;-77
2022/04/28 01:09:29;;;;;;;1453.78;999.90;;;7.80;1.00;;;;;;4958857;28;20504;-77
2022/04/28 01:11:55;;;;;;;1464.35;999.90;;;7.80;1.00;;;;;;4975031;28;20081;-77
2022/04/28 01:14:20;;;;;;;1736.18;999.90;;;8.00;1.00;;;;;;4975956;28;20253;-77
2022/04/28 01:16:46;;;;;;;1374.20;999.90;;;7.80;1.00;;;;;;4976126;28;20548;-77
2022/04/28 01:19:12;;;;;;;1177.32;999.90;;;8.50;1.00;;;;;;4975796;28;20051;-77
2022/04/28 01:21:37;;;;;;;1390.70;999.90;;;8.00;1.00;;;;;;4942463;28;20384;-78
2022/04/28 01:24:03;;;;;;;1691.28;999.90;;;9.70;1.00;;;;;;4958884;28;20400;-78
2022/04/28 01:26:29;;;;;;;1604.50;999.90;;;7.90;1.00;;;;;;4958593;28;20055;-78
2022/04/28 01:28:55;;;;;;;1110.63;992.85;;;8.00;1.00;;;;;;4976281;28;20046;-78
2022/04/28 01:31:21;;;;;;;1073.10;955.97;;;7.80;1.00;;;;;;4976048;28;20391;-78
2022/04/28 01:33:47;;;;;;;1509.68;999.90;;;8.10;1.00;;;;;;4976286;28;20122;-76
2022/04/28 01:36:12;;;;;;;1246.20;999.90;;;7.80;1.00;;;;;;4975200;28;20055;-77
2022/04/28 01:38:38;;;;;;;1555.57;999.90;;;7.80;1.00;;;;;;4976181;28;20051;-77
2022/04/28 01:41:04;;;;;;;1234.78;998.05;;;7.80;1.00;;;;;;4976139;28;20043;-77
2022/04/28 01:43:30;;;;;;;1592.07;999.90;;;9.90;1.00;;;;;;4975743;28;20051;-77
2022/04/28 01:45:56;;;;;;;1353.85;999.90;;;7.80;1.00;;;;;;4926924;28;20055;-77
2022/04/28 01:48:22;;;;;;;1031.20;932.80;;;7.80;1.00;;;;;;4975896;28;20129;-77
2022/04/28 01:56:17;;;;;;;1050.55;947.85;;;7.80;1.00;;;;;;4975510;28;20055;-77
2022/04/28 01:58:42;;;;;;;1219.43;999.90;;;8.30;1.00;;;;;;4958457;28;20325;-77
2022/04/28 02:01:08;;;;;;;1243.05;998.47;;;8.90;1.00;;;;;;4958180;28;20097;-76
2022/04/28 02:03:34;;;;;;;1104.78;988.78;;;9.10;1.00;;;;;;4941775;28;20065;-77
2022/04/28 02:06:00;;;;;;;1054.95;936.78;;;7.80;1.00;;;;;;4957728;28;20054;-76
2022/04/28 02:08:26;;;;;;;1314.88;999.90;;;8.00;1.00;;;;;;4973763;28;20055;-77
2022/04/28 02:10:51;;;;;;;1197.57;989.28;;;7.80;1.00;;;;;;4941780;28;20105;-77
2022/04/28 02:13:17;;;;;;;1489.82;999.90;;;8.90;1.00;;;;;;4974707;28;20054;-77
2022/04/28 02:15:45;;;;;;;1808.35;999.90;;;8.90;1.00;;;;;;4957850;28;20145;-77
2022/04/28 02:18:11;;;;;;;1635.00;999.90;;;8.20;1.00;;;;;;4957805;28;20054;-77
2022/04/28 02:20:37;;;;;;;1492.55;999.90;;;7.80;1.00;;;;;;4972930;28;20047;-77
2022/04/28 02:23:03;;;;;;;1735.70;999.90;;;8.70;1.00;;;;;;4957549;28;20459;-77
2022/04/28 02:25:29;;;;;;;1331.97;999.90;;;7.90;1.00;;;;;;4974580;28;20459;-77
2022/04/28 02:27:55;;;;;;;1870.72;999.90;;;8.70;1.00;;;;;;4975057;28;20196;-77
2022/04/28 02:30:20;;;;;;;1427.32;999.90;;;7.90;1.00;;;;;;4957209;28;20142;-76
2022/04/28 02:35:30;;;;;;;1166.47;992.13;;;8.60;1.00;;;;;;4956930;28;20113;-77
2022/04/28 02:37:56;;;;;;;1479.68;999.90;;;7.90;1.00;;;;;;4941609;28;20046;-77
2022/04/28 02:40:22;;;;;;;1116.00;994.55;;;8.40;1.00;;;;;;4973945;28;20126;-76
2022/04/28 02:42:47;;;;;;;926.83;841.25;;;7.80;1.00;;;;;;4974728;28;20051;-77
2022/04/28 02:45:13;;;;;;;1036.32;929.60;;;7.90;99.90;;;;;;4974443;28;20479;-77
2022/04/28 02:47:40;;;;;;;1269.75;967.92;;;7.90;99.90;;;;;;4957088;28;20106;-76
2022/04/28 02:50:11;;;;;;;1440.45;999.90;;;8.90;99.90;;;;;;4973453;28;20109;-77
2022/04/28 02:52:37;;;;;;;1133.57;999.90;;;7.90;99.90;;;;;;4974117;28;20133;-76
2022/04/28 02:55:03;;;;;;;1931.97;999.90;;;8.50;99.90;;;;;;4974448;28;20392;-76
2022/04/28 02:57:29;;;;;;;1380.22;999.90;;;7.90;1.00;;;;;;4974022;28;20054;-77
2022/04/28 02:59:55;;;;;;;1628.00;999.90;;;7.90;1.00;;;;;;4956689;28;20043;-76
2022/04/28 03:02:20;;;;;;;1846.65;999.90;;;7.90;1.00;;;;;;4974418;28;20050;-77
2022/04/28 03:04:46;;;;;;;1331.88;998.72;;;9.10;99.90;;;;;;4956705;28;20059;-77
2022/04/28 03:12:40;;;;;;;1269.57;999.90;;;7.90;1.00;;;;;;4973704;28;20201;-77
2022/04/28 03:15:06;;;;;;;1828.07;999.90;;;8.10;1.00;;;;;;4956755;28;20129;-77
2022/04/28 03:17:33;;;;;;;1400.22;999.90;;;7.90;1.00;;;;;;4973614;28;20492;-77
2022/04/28 03:19:58;;;;;;;1127.72;994.42;;;7.90;1.00;;;;;;4973421;28;20046;-77
2022/04/28 03:22:24;;;;;;;1152.03;993.78;;;9.30;1.00;;;;;;4973582;28;20057;-77
2022/04/28 03:24:50;;;;;;;1282.28;999.90;;;7.90;1.00;;;;;;4973340;28;20068;-76
2022/04/28 03:27:15;;;;;;;1471.50;999.90;;;7.90;1.00;;;;;;4973778;28;20058;-76
2022/04/28 03:29:41;;;;;;;1401.65;999.90;;;8.20;1.00;;;;;;4973290;28;20097;-76
2022/04/28 03:32:10;;;;;;;1523.30;999.90;;;7.80;1.00;;;;;;4973599;28;20500;-76
2022/04/28 03:34:36;;;;;;;1507.65;999.90;;;7.90;1.00;;;;;;4956238;28;20054;-76
2022/04/28 03:37:01;;;;;;;1312.70;999.90;;;8.70;1.00;;;;;;4956064;28;20057;-76
2022/04/28 03:39:28;;;;;;;1170.05;999.90;;;7.90;1.00;;;;;;4955949;28;20043;-78
2022/04/28 03:41:53;;;;;;;1194.60;999.90;;;7.80;1.00;;;;;;4973518;28;20061;-76
2022/04/28 03:44:20;;;;;;;1590.55;999.90;;;8.40;1.00;;;;;;4956186;28;20058;-76
2022/04/28 03:46:45;;;;;;;1262.85;999.90;;;9.30;1.00;;;;;;4973405;28;20073;-76
2022/04/28 03:49:11;;;;;;;1291.15;999.90;;;7.90;1.00;;;;;;4956279;28;20074;-76
2022/04/28 03:51:37;;;;;;;1300.18;999.90;;;7.90;1.00;;;;;;4955390;28;20070;-76
2022/04/28 03:54:03;;;;;;;1635.15;999.90;;;9.50;1.00;;;;;;4973305;28;20078;-76
2022/04/28 03:56:31;;;;;;;1305.57;999.90;;;7.90;1.00;;;;;;4955602;28;20047;-76
2022/04/28 03:59:01;;;;;;;1678.47;999.90;;;7.90;1.00;;;;;;4973406;28;20145;-76
2022/04/28 04:01:27;;;;;;;1605.28;999.90;;;8.60;1.00;;;;;;4973030;28;20483;-76
2022/04/28 04:03:53;;;;;;;1056.63;951.38;;;9.40;1.00;;;;;;4940170;28;20053;-76
2022/04/28 04:06:19;;;;;;;1205.88;999.90;;;7.80;1.00;;;;;;4973024;28;20050;-76
2022/04/28 04:08:45;;;;;;;1326.68;999.90;;;8.90;1.00;;;;;;4973300;28;20049;-75
2022/04/28 04:11:12;;;;;;;1225.93;999.90;;;9.30;1.00;;;;;;4973351;28;20046;-76
2022/04/28 04:13:38;;;;;;;1496.82;999.90;;;8.80;1.00;;;;;;4972835;28;20464;-77
2022/04/28 04:16:04;;;;;;;1306.30;999.90;;;7.80;1.00;;;;;;4973406;28;20086;-77
2022/04/28 04:18:31;;;;;;;1436.38;999.90;;;7.80;1.00;;;;;;4972937;28;20047;-77
2022/04/28 04:20:57;;;;;;;1351.70;999.90;;;9.30;1.00;;;;;;4972755;28;20113;-76
2022/04/28 04:23:23;;;;;;;1358.15;999.90;;;7.80;1.00;;;;;;4972405;28;20476;-78
2022/04/28 04:25:48;;;;;;;1376.93;999.90;;;7.80;1.00;;;;;;4972630;28;20042;-78
2022/04/28 04:28:14;;;;;;;1627.15;999.90;;;8.50;1.00;;;;;;4972617;28;20054;-77
2022/04/28 04:33:24;;;;;;;1419.20;999.90;;;7.80;1.00;;;;;;4976432;28;20059;-77
2022/04/28 04:35:49;;;;;;;1396.18;999.90;;;7.90;1.00;;;;;;4976250;28;20085;-78
2022/04/28 04:38:15;;;;;;;1528.95;999.90;;;7.90;1.00;;;;;;4959508;28;20051;-77
2022/04/28 04:40:41;;;;;;;1352.45;999.90;;;8.60;1.00;;;;;;4959120;28;20078;-78
2022/04/28 04:43:13;;;;;;;1348.00;999.90;;;7.90;1.00;;;;;;4959357;28;20054;-77
2022/04/28 04:45:42;;;;;;;1444.05;999.90;;;7.90;1.00;;;;;;4976515;28;20504;-77
2022/04/28 04:48:09;;;;;;;1258.40;999.90;;;8.00;1.00;;;;;;4976677;28;20051;-78
2022/04/28 04:50:36;;;;;;;1454.03;999.90;;;9.60;1.00;;;;;;4975881;28;20058;-79
2022/04/28 04:53:01;;;;;;;1557.22;999.90;;;8.00;1.00;;;;;;4976696;28;20047;-78
2022/04/28 04:55:27;;;;;;;1818.88;929.25;;;8.00;1.00;;;;;;4959263;28;20065;-78
2022/04/28 04:57:53;;;;;;;1859.93;999.90;;;8.10;1.00;;;;;;4976409;28;20058;-78
2022/04/28 05:00:18;;;;;;;1698.93;999.90;;;8.10;1.00;;;;;;4959161;28;20170;-78
2022/04/28 05:02:44;;;;;;;1359.40;840.58;;;8.70;1.00;;;;;;4976055;28;20047;-78
2022/04/28 05:05:10;;;;;;;1615.88;999.90;;;8.20;1.00;;;;;;4975973;28;20054;-78
2022/04/28 05:07:35;;;;;;;1552.22;999.90;;;8.60;1.00;;;;;;4976068;28;20054;-78
2022/04/28 05:10:01;;;;;;;1624.18;999.90;;;8.30;1.00;;;;;;4981921;28;20082;-76
2022/04/28 05:12:27;;;;;;;1767.68;999.90;;;8.30;1.00;;;;;;4972908;28;20047;-77
2022/04/28 05:14:53;;;;;;;1462.30;999.90;;;8.40;1.00;;;;;;4989030;28;20053;-78
2022/04/28 05:17:18;;;;;;;1676.22;999.90;;;8.40;1.00;;;;;;4988721;28;20071;-78
2022/04/28 05:19:44;;;;;;;1999.90;999.90;;;8.40;1.00;;;;;;4970624;28;20039;-78
2022/04/28 05:22:10;;;;;;;1999.90;999.90;;;8.40;1.00;;;;;;4988858;28;20110;-77
2022/04/28 05:24:35;;;;;;;1528.22;999.90;;;8.50;1.00;;;;;;4986000;28;20066;-78
2022/04/28 05:27:01;;;;;;;1367.05;999.90;;;8.30;1.00;;;;;;4979982;28;20053;-78
2022/04/28 05:29:27;;;;;;;1999.90;999.90;;;8.50;1.00;;;;;;4976291;28;20105;-77
2022/04/28 05:31:52;;;;;;;1535.72;999.90;;;8.50;1.00;;;;;;4976229;28;20047;-77
2022/04/28 05:34:18;;;;;;;1843.68;999.90;;;8.60;1.00;;;;;;4977009;28;20373;-77
2022/04/28 05:36:45;;;;;;;1671.45;999.90;;;8.50;1.00;;;;;;4976696;28;20054;-76
2022/04/28 05:39:11;;;;;;;1999.90;999.90;;;9.30;1.00;;;;;;4976767;28;20066;-77
2022/04/28 05:41:37;;;;;;;1999.90;999.90;;;9.30;1.00;;;;;;4959077;28;20082;-78
2022/04/28 05:46:50;;;;;;;1154.15;986.03;;;6.60;1.00;;;;;;4976220;28;20138;-79
2022/04/28 05:49:15;;;;;;;1346.00;999.90;;;8.70;1.00;;;;;;4959336;28;20050;-78
2022/04/28 05:51:41;;;;;;;1189.20;979.33;;;9.20;1.00;;;;;;4975361;28;20113;-78
2022/04/28 05:54:07;;;;;;;1455.20;999.90;;;8.70;1.00;;;;;;4959105;28;20051;-78
2022/04/28 05:56:33;;;;;;;1555.10;999.90;;;8.70;1.00;;;;;;4976071;28;20477;-78
2022/04/28 05:58:58;;;;;;;1318.75;999.90;;;10.00;1.00;;;;;;4958456;28;20042;-79
2022/04/28 06:01:24;;;;;;;1508.97;999.90;;;8.80;1.00;;;;;;4958307;28;20051;-78
2022/04/28 06:03:50;;;;;;;1366.35;999.90;;;8.80;1.00;;;;;;4975780;28;20111;-75
2022/04/28 06:06:15;;;;;;;1554.25;999.90;;;9.20;1.00;;;;;;4975370;28;20054;-77
2022/04/28 06:08:42;;;;;;;1281.38;999.90;;;10.60;1.00;;;;;;4975283;28;20050;-77
2022/04/28 06:11:08;;;;;;;1243.13;984.08;;;9.50;1.00;;;;;;4975067;28;20109;-77
2022/04/28 06:13:33;;;;;;;1500.60;999.90;;;9.10;1.00;;;;;;4957765;28;20050;-77
2022/04/28 06:16:00;;;;;;;1193.30;974.22;;;9.00;1.00;;;;;;4974438;28;20380;-77
2022/04/28 06:18:27;;;;;;;1206.78;978.75;;;9.10;1.00;;;;;;4974861;28;20046;-77
2022/04/28 06:20:53;;;;;;;1359.93;999.90;;;10.40;1.00;;;;;;4973829;28;20054;-77
2022/04/28 06:23:19;;;;;;;971.17;874.80;;;9.40;1.00;;;;;;4957800;28;20625;-77
2022/04/28 06:25:44;;;;;;;1232.70;997.17;;;9.50;1.00;;;;;;4941497;28;20101;-77
2022/04/28 06:28:10;;;;;;;1406.43;999.90;;;10.00;1.00;;;;;;4975040;28;20451;-78
2022/04/28 06:30:36;;;;;;;1291.40;999.90;;;9.90;99.90;;;;;;4957490;28;20055;-77
2022/04/28 06:33:03;;;;;;;1400.95;999.90;;;10.20;99.90;;;;;;4974686;28;20042;-76
2022/04/28 06:35:29;;;;;;;1497.90;999.90;;;10.30;99.90;;;;;;4974368;28;20061;-77
2022/04/28 06:37:55;;;;;;;1187.07;997.15;;;10.50;99.90;;;;;;4957032;28;20428;-77
2022/04/28 06:40:21;;;;;;;1612.88;999.90;;;10.60;99.90;;;;;;4974442;28;20105;-76
2022/04/28 06:42:50;;;;;;;1600.28;999.90;;;10.70;99.90;;;;;;4974236;28;20051;-77
2022/04/28 06:45:16;;;;;;;1521.80;999.90;;;10.80;99.90;;;;;;4957343;28;20054;-77
2022/04/28 06:47:41;;;;;;;1755.05;999.90;;;11.00;99.90;;;;;;4974255;28;20054;-77
2022/04/28 06:50:08;;;;;;;1469.55;999.90;;;11.10;99.90;;;;;;4973923;28;20488;-76
2022/04/28 06:52:40;;;;;;;1115.90;915.95;;;11.30;99.90;;;;;;4974242;28;20483;-76
2022/04/28 06:55:07;;;;;;;1436.25;999.90;;;11.60;99.90;;;;;;4973575;28;20047;-77
2022/04/28 06:57:33;;;;;;;1269.20;992.00;;;11.50;99.90;;;;;;4974248;28;20054;-77
2022/04/28 07:00:00;;;;;;;731.30;670.78;;;11.50;99.90;;;;;;4974215;28;20350;-76
2022/04/28 07:02:25;;;;;;;1511.82;999.90;;;11.50;99.90;;;;;;4941339;28;20492;-76
2022/04/28 07:04:52;;;;;;;768.22;696.85;;;11.60;99.90;;;;;;4973641;28;20050;-77
2022/04/28 07:07:18;;;;;;;573.83;522.72;;;11.30;99.90;;;;;;4956794;28;20097;-76
2022/04/28 07:09:43;;;;;;;657.38;602.38;;;12.20;99.90;;;;;;4973816;28;20074;-77
2022/04/28 07:12:11;;;;;;;1103.45;914.83;;;12.60;99.90;;;;;;4974045;28;20502;-77
2022/04/28 07:14:37;;;;;;;981.95;860.25;;;10.90;99.90;;;;;;4974026;28;20062;-80
2022/04/28 07:17:03;;;;;;;1001.42;883.20;;;11.00;99.90;;;;;;4973761;28;20076;-77
2022/04/28 07:19:29;;;;;;;762.58;690.25;;;11.00;99.90;;;;;;4973898;28;20205;-77
2022/04/28 07:21:55;;;;;;;1666.13;999.90;;;11.10;99.90;;;;;;4973255;28;20518;-77
2022/04/28 07:24:21;;;;;;;1127.85;919.78;;;;;;;;;;4973915;28;20054;-77
2022/04/28 07:26:46;;;;;;;591.35;550.30;;;12.90;99.90;;;;;;4956290;28;20447;-77
2022/04/28 07:29:13;;;;;;;235.75;220.88;;;;;;;;;;4973751;28;20047;-78
2022/04/28 07:31:38;;;;;;;173.38;162.77;;;14.30;99.90;;;;;;4972471;28;20168;-77
2022/04/28 07:34:04;;;;;;;309.65;287.23;;;13.90;99.90;;;;;;4973374;28;20197;-77
2022/04/28 07:36:30;;;;;;;790.58;728.60;;;14.60;99.90;;;;;;4973387;28;20065;-77
2022/04/28 07:38:56;;;;;;;501.33;462.48;;;13.80;99.90;;;;;;4973342;28;20047;-77
2022/04/28 07:41:22;;;;;;;658.80;608.63;;;14.70;99.90;;;;;;4956030;28;20061;-77
2022/04/28 07:43:48;;;;;;;602.22;561.47;;;16.30;99.90;;;;;;4973468;28;20395;-77
2022/04/28 07:46:13;;;;;;;562.45;520.20;;;18.10;99.90;;;;;;4973441;28;20050;-77
2022/04/28 07:48:40;;;;;;;193.57;181.55;;;19.70;99.90;;;;;;4956469;28;20061;-77
2022/04/28 07:51:05;;;;;;;434.05;407.00;;;19.60;99.90;;;;;;4972703;28;20058;-77
2022/04/28 07:53:32;;;;;;;368.73;344.35;;;19.00;99.90;;;;;;4973591;28;20510;-78
2022/04/28 07:56:10;;;;;;;295.48;276.98;;;18.50;99.90;;;;;;4973211;28;20109;-78
2022/04/28 07:58:41;;;;;;;584.40;546.20;;;17.90;99.90;;;;;;4973312;28;20512;-78
2022/04/28 08:01:07;;;;;;;629.83;588.35;;;17.30;99.90;;;;;;4973211;28;20047;-78
2022/04/28 08:03:33;;;;;;;584.22;539.92;;;17.20;99.90;;;;;;4973708;28;20038;-77
2022/04/28 08:05:58;;;;;;;550.45;513.38;;;17.20;99.90;;;;;;4954732;28;20046;-78
2022/04/28 08:08:24;;;;;;;751.67;700.20;;;16.90;99.90;;;;;;4973210;28;20237;-79
2022/04/28 08:10:50;;;;;;;388.10;362.20;;;16.70;99.90;;;;;;4972986;28;20094;-78
2022/04/28 08:13:17;;;;;;;623.20;574.47;;;16.40;99.90;;;;;;4973363;28;20091;-78
2022/04/28 08:15:43;;;;;;;816.28;759.53;;;15.90;99.90;;;;;;4955991;28;20115;-78
2022/04/28 08:18:09;;;;;;;761.08;705.20;;;15.50;99.90;;;;;;4972943;28;20053;-78
2022/04/28 08:20:35;;;;;;;843.50;782.58;;;15.10;99.90;;;;;;4972700;28;20085;-76
2022/04/28 08:23:01;;;;;;;832.38;770.05;;;14.90;99.90;;;;;;4955685;28;20101;-79
2022/04/28 08:25:27;;;;;;;718.67;664.97;;;14.60;99.90;;;;;;4972748;28;20055;-77
2022/04/28 08:27:52;;;;;;;830.25;768.10;;;14.50;99.90;;;;;;4972728;28;20051;-77
2022/04/28 08:30:18;;;;;;;732.00;673.70;;;14.40;99.90;;;;;;4972951;28;20078;-77
2022/04/28 08:32:44;;;;;;;784.45;727.33;;;14.50;99.90;;;;;;4973075;28;20053;-76
2022/04/28 08:35:09;;;;;;;1004.20;902.15;;;14.50;99.90;;;;;;4955241;28;20447;-77
2022/04/28 08:37:36;;;;;;;838.10;758.08;;;14.70;99.90;;;;;;4972888;28;20047;-78
2022/04/28 08:40:03;;;;;;;788.88;722.92;;;14.70;99.90;;;;;;4939379;28;20038;-77
2022/04/28 08:42:31;;;;;;;744.65;687.25;;;14.80;99.90;;;;;;4955674;28;20057;-77
2022/04/28 08:45:00;;;;;;;903.15;818.90;;;15.00;99.90;;;;;;4955557;28;20039;-77
2022/04/28 08:47:25;;;;;;;779.83;710.42;;;15.30;99.90;;;;;;4972936;28;20345;-78
2022/04/28 08:49:51;;;;;;;783.47;724.75;;;15.40;99.90;;;;;;4954976;28;20078;-78
2022/04/28 08:52:18;;;;;;;809.72;748.58;;;15.70;99.90;;;;;;4972923;28;20050;-78
2022/04/28 08:54:45;;;;;;;802.33;741.33;;;15.60;99.90;;;;;;4955619;28;20047;-78
2022/04/28 08:57:13;;;;;;;839.00;773.57;;;15.60;99.90;;;;;;4972527;28;20055;-78
2022/04/28 08:59:39;;;;;;;690.40;632.03;;;15.50;99.90;;;;;;4972683;28;20639;-78
2022/04/28 09:02:05;;;;;;;717.83;661.80;;;15.60;99.90;;;;;;4972448;28;20484;-78
2022/04/28 09:04:31;;;;;;;856.28;779.53;;;15.60;99.90;;;;;;4923873;28;20055;-78
2022/04/28 09:06:58;;;;;;;912.03;819.10;;;15.50;99.90;;;;;;4971894;28;20042;-78
2022/04/28 09:09:26;;;;;;;769.22;709.20;;;15.60;99.90;;;;;;4972750;28;20054;-77
2022/04/28 09:11:56;;;;;;;856.40;788.53;;;15.50;99.90;;;;;;4972357;28;20341;-78
2022/04/28 09:14:23;;;;;;;732.20;666.47;;;15.30;99.90;;;;;;4972620;28;20051;-76
2022/04/28 09:16:59;;;;;;;756.63;689.80;;;15.10;99.90;;;;;;4972566;28;20072;-78
2022/04/28 09:19:32;;;;;;;1197.47;997.85;;;14.90;99.90;;;;;;4958582;28;20057;-78
2022/04/28 09:22:01;;;;;;;775.42;716.15;;;15.20;99.90;;;;;;4959094;28;20097;-79
2022/04/28 09:24:27;;;;;;;890.85;802.13;;;14.80;99.90;;;;;;4959122;28;20074;-77
2022/04/28 09:26:55;;;;;;;867.72;801.15;;;15.00;99.90;;;;;;4976047;28;20054;-78
2022/04/28 09:29:23;;;;;;;746.35;689.33;;;14.90;99.90;;;;;;4976436;28;20058;-78
2022/04/28 09:31:53;;;;;;;896.13;808.22;;;15.20;99.90;;;;;;4943173;28;20047;-78
2022/04/28 09:34:21;;;;;;;1205.60;999.90;;;15.50;99.90;;;;;;4959146;28;20050;-78
2022/04/28 09:36:48;;;;;;;739.80;681.00;;;15.60;99.90;;;;;;4975948;28;20418;-77
2022/04/28 09:45:05;;;;;;;684.53;631.53;;;17.10;99.90;;;;;;4946251;28;20061;-78
2022/04/28 09:47:31;;;;;;;641.42;588.97;;;17.50;99.90;;;;;;4976518;28;20051;-78
2022/04/28 09:49:58;;;;;;;257.08;235.40;;;17.50;99.90;;;;;;4975569;28;20322;-77
2022/04/28 09:52:44;;;;;;;461.17;423.63;;;17.60;99.90;;;;;;4959040;28;20050;-77
2022/04/28 09:55:10;;;;;;;708.58;649.55;;;17.70;99.90;;;;;;4975772;28;20154;-77
2022/04/28 09:57:36;;;;;;;779.60;708.10;;;17.80;99.90;;;;;;4975878;28;20200;-78
2022/04/28 10:00:03;;;;;;;718.45;661.88;;;17.90;99.90;;;;;;4975423;28;20142;-78
2022/04/28 10:02:29;;;;;;;583.05;534.17;;;18.20;99.90;;;;;;4975389;28;20523;-78
2022/04/28 10:04:55;;;;;;;261.70;239.68;;;18.10;99.90;;;;;;4974965;28;20105;-78
2022/04/28 10:07:22;;;;;;;635.78;573.15;;;17.80;99.90;;;;;;4975480;28;20148;-78
2022/04/28 10:09:51;;;;;;;488.92;447.25;;;17.30;99.90;;;;;;4975571;28;20082;-78
2022/04/28 10:12:22;;;;;;;776.47;713.85;;;16.80;99.90;;;;;;4958093;28;20058;-78
2022/04/28 10:14:49;;;;;;;893.42;799.40;;;16.30;99.90;;;;;;4958187;28;20074;-78
2022/04/28 10:17:19;;;;;;;537.50;494.45;;;16.00;99.90;;;;;;4975307;28;20305;-78
2022/04/28 10:19:51;;;;;;;530.15;488.83;;;15.80;99.90;;;;;;4975003;28;20055;-78
2022/04/28 10:22:22;;;;;;;817.92;741.35;;;15.70;99.90;;;;;;4974951;28;20050;-78
2022/04/28 10:33:10;;;;;;;700.63;637.30;;;16.80;99.90;;;;;;4957367;28;20058;-77
2022/04/28 10:35:43;;;;;;;670.22;605.80;;;17.10;99.90;;;;;;4957481;28;20053;-78
2022/04/28 10:38:10;;;;;;;894.42;810.60;;;17.00;99.90;;;;;;4974618;28;20054;-77
2022/04/28 10:40:38;;;;;;;530.53;486.70;;;17.30;99.90;;;;;;4973486;28;20121;-77
2022/04/28 10:43:04;;;;;;;905.40;825.10;;;17.70;99.90;;;;;;4974460;28;20062;-78
2022/04/28 10:45:41;;;;;;;876.88;803.83;;;17.80;99.90;;;;;;4957557;28;20372;-77
2022/04/28 10:48:23;;;;;;;538.40;474.95;;;18.00;99.90;;;;;;4956999;28;20061;-78
2022/04/28 10:51:04;;;;;;;696.83;625.50;;;18.00;99.90;;;;;;4974392;28;20146;-77
2022/04/28 10:53:30;;;;;;;780.95;715.92;;;18.20;99.90;;;;;;4974746;28;20114;-77
2022/04/28 10:55:56;;;;;;;483.33;444.25;;;18.30;99.90;;;;;;4974732;28;20069;-77
2022/04/28 10:58:23;;;;;;;735.00;663.30;;;18.30;99.90;;;;;;4974247;28;20145;-77
2022/04/28 11:00:54;;;;;;;380.13;348.70;;;18.60;99.90;;;;;;4957157;28;20137;-77
2022/04/28 11:03:46;;;;;;;522.45;478.33;;;18.70;99.90;;;;;;4974149;28;20402;-76
2022/04/28 11:06:18;;;;;;;531.95;487.08;;;18.90;99.90;;;;;;4956596;28;20454;-78
2022/04/28 11:08:47;;;;;;;263.65;243.43;;;18.80;99.90;;;;;;4974306;28;20460;-76
2022/04/28 11:11:14;;;;;;;563.08;516.67;;;18.60;99.90;;;;;;4973544;28;20349;-76
2022/04/28 11:13:43;;;;;;;634.22;581.35;;;18.60;99.90;;;;;;4974154;28;20097;-76
2022/04/28 11:16:11;;;;;;;329.70;303.85;;;18.20;99.90;;;;;;4956711;28;20121;-77
2022/04/28 11:18:37;;;;;;;;;;;18.00;99.90;;;;;;4974599;28;20047;-78
2022/04/28 11:21:04;;;;;;;748.08;690.75;;;17.80;99.90;;;;;;4956554;28;20328;-76
2022/04/28 11:23:35;;;;;;;741.88;675.45;;;17.70;99.90;;;;;;4974447;28;20161;-77
2022/04/28 11:26:02;;;;;;;684.80;632.40;;;17.60;99.90;;;;;;4974487;28;20046;-77
2022/04/28 11:28:32;;;;;;;519.67;474.55;;;17.50;99.90;;;;;;4956698;28;20090;-76
2022/04/28 11:30:58;;;;;;;754.50;698.63;;;17.40;99.90;;;;;;4974145;28;20089;-77
2022/04/28 11:33:24;;;;;;;527.33;484.35;;;17.50;99.90;;;;;;4973878;28;20142;-77
2022/04/28 11:35:50;;;;;;;791.60;718.03;;;17.60;99.90;;;;;;4973775;28;20086;-76
2022/04/28 11:38:32;;;;;;;861.53;778.30;;;17.90;99.90;;;;;;4956499;28;20093;-77
2022/04/28 11:41:03;;;;;;;777.47;715.38;;;18.00;99.90;;;;;;4974160;28;20089;-77
2022/04/28 11:43:34;;;;;;;543.10;500.33;;;18.10;99.90;;;;;;4973804;28;20058;-76
2022/04/28 11:46:00;;;;;;;669.90;613.53;;;18.00;99.90;;;;;;4956627;28;20095;-77
2022/04/28 11:48:30;;;;;;;971.88;813.58;;;17.90;99.90;;;;;;4973565;28;20061;-77
2022/04/28 11:51:03;;;;;;;805.70;742.47;;;17.90;99.90;;;;;;4956018;28;20142;-77
2022/04/28 11:53:55;;;;;;;503.17;461.85;;;17.90;99.90;;;;;;4973631;28;20047;-77
2022/04/28 11:56:29;;;;;;;784.17;722.50;;;17.60;99.90;;;;;;4952112;28;20162;-77
2022/04/28 11:58:55;;;;;;;814.25;738.25;;;17.30;99.90;;;;;;4956722;28;20141;-76
2022/04/28 12:01:22;;;;;;;614.38;567.22;;;17.00;99.90;;;;;;4939860;28;20396;-77
2022/04/28 12:03:57;;;;;;;730.70;672.53;;;16.90;99.90;;;;;;4973648;28;20043;-76
2022/04/28 12:06:24;;;;;;;725.28;664.08;;;16.80;99.90;;;;;;4972944;28;20038;-76
2022/04/28 12:08:55;;;;;;;620.70;567.72;;;16.80;99.90;;;;;;4973504;28;20066;-77
2022/04/28 12:14:23;;;;;;;685.92;627.85;;;16.70;99.90;;;;;;4973576;28;20051;-77
2022/04/28 12:19:59;;;;;;;1115.75;908.38;;;16.40;99.90;;;;;;4956190;28;20047;-77
2022/04/28 12:22:30;;;;;;;599.63;552.17;;;16.40;99.90;;;;;;4956199;28;20046;-76
2022/04/28 12:25:02;;;;;;;605.75;555.53;;;16.40;99.90;;;;;;4973410;28;20493;-76
2022/04/28 12:27:41;;;;;;;746.40;671.03;;;16.30;99.90;;;;;;4973121;28;20053;-76
2022/04/28 12:30:08;;;;;;;681.72;625.60;;;16.30;99.90;;;;;;4956275;28;20090;-76
2022/04/28 12:32:42;;;;;;;544.72;499.30;;;16.30;99.90;;;;;;4972820;28;20503;-76
2022/04/28 12:35:08;;;;;;;757.03;701.67;;;16.30;99.90;;;;;;4973100;28;20074;-76
2022/04/28 12:37:40;;;;;;;721.53;645.60;;;16.30;99.90;;;;;;4955985;28;20480;-76
2022/04/28 12:40:07;;;;;;;670.63;604.05;;;16.40;99.90;;;;;;4973028;28;20045;-76
2022/04/28 12:42:49;;;;;;;539.80;497.83;;;16.40;99.90;;;;;;4972592;28;20423;-77
2022/04/28 12:45:33;;;;;;;645.28;592.25;;;16.50;99.90;;;;;;4955560;28;20050;-77
2022/04/28 12:47:58;;;;;;;576.92;531.47;;;16.60;99.90;;;;;;4955442;28;20050;-77
2022/04/28 12:50:25;;;;;;;972.15;871.53;;;16.70;99.90;;;;;;4972023;28;20109;-78
2022/04/28 12:52:51;;;;;;;639.90;591.10;;;16.70;99.90;;;;;;4974096;28;20042;-77
2022/04/28 12:55:19;;;;;;;921.50;781.67;;;16.70;99.90;;;;;;4976123;28;20472;-78